Aviation Digital Data Service (ADDS)

Output produced by METARs form (0346 UTC 14 February 2016)
found at http://aviationweather.gov/adds/metars/
 
KROA 132340Z 1400/1424 31010G18KT P6SM SKC 
     FM140600 30005KT P6SM SKC 
     FM141200 VRB03KT P6SM OVC250 
     FM142100 13004KT P6SM OVC100